sensor_id;sensor_type;location;lat;lon;timestamp;pressure;altitude;pressure_sealevel;temperature;humidity
73525;BME280;61776;56.194;44.160;2022-07-19T00:02:00;99643.00;;;15.89;78.65
73525;BME280;61776;56.194;44.160;2022-07-19T00:04:26;99635.16;;;15.89;78.41
73525;BME280;61776;56.194;44.160;2022-07-19T00:06:52;99635.78;;;15.91;78.42
73525;BME280;61776;56.194;44.160;2022-07-19T00:09:21;99631.16;;;15.93;78.15
73525;BME280;61776;56.194;44.160;2022-07-19T00:11:47;99624.78;;;15.96;78.07
73525;BME280;61776;56.194;44.160;2022-07-19T00:14:13;99626.09;;;15.91;77.89
73525;BME280;61776;56.194;44.160;2022-07-19T00:16:38;99633.53;;;15.88;78.02
73525;BME280;61776;56.194;44.160;2022-07-19T00:19:04;99634.00;;;15.77;78.33
73525;BME280;61776;56.194;44.160;2022-07-19T00:21:30;99636.41;;;15.78;78.23
73525;BME280;61776;56.194;44.160;2022-07-19T00:23:56;99631.88;;;15.72;78.08
73525;BME280;61776;56.194;44.160;2022-07-19T00:26:22;99634.50;;;15.72;78.21
73525;BME280;61776;56.194;44.160;2022-07-19T00:28:48;99630.63;;;15.68;78.24
73525;BME280;61776;56.194;44.160;2022-07-19T00:31:13;99626.38;;;15.67;78.39
73525;BME280;61776;56.194;44.160;2022-07-19T00:33:39;99615.28;;;15.65;78.34
73525;BME280;61776;56.194;44.160;2022-07-19T00:36:05;99609.50;;;15.69;78.09
73525;BME280;61776;56.194;44.160;2022-07-19T00:38:31;99610.84;;;15.65;77.83
73525;BME280;61776;56.194;44.160;2022-07-19T00:40:57;99621.75;;;15.69;77.73
73525;BME280;61776;56.194;44.160;2022-07-19T00:43:25;99620.50;;;15.65;77.74
73525;BME280;61776;56.194;44.160;2022-07-19T00:45:51;99630.00;;;15.66;77.85
73525;BME280;61776;56.194;44.160;2022-07-19T00:48:18;99629.09;;;15.59;77.72
73525;BME280;61776;56.194;44.160;2022-07-19T00:50:44;99619.16;;;15.54;77.84
73525;BME280;61776;56.194;44.160;2022-07-19T00:53:10;99624.13;;;15.49;78.10
73525;BME280;61776;56.194;44.160;2022-07-19T00:55:38;99621.22;;;15.44;78.24
73525;BME280;61776;56.194;44.160;2022-07-19T00:58:06;99616.34;;;15.41;78.50
73525;BME280;61776;56.194;44.160;2022-07-19T01:00:34;99610.66;;;15.37;78.42
73525;BME280;61776;56.194;44.160;2022-07-19T01:03:00;99626.34;;;15.37;78.34
73525;BME280;61776;56.194;44.160;2022-07-19T01:05:27;99622.31;;;15.34;78.36
73525;BME280;61776;56.194;44.160;2022-07-19T01:07:53;99627.72;;;15.33;78.37
73525;BME280;61776;56.194;44.160;2022-07-19T01:10:18;99627.88;;;15.31;78.36
73525;BME280;61776;56.194;44.160;2022-07-19T01:12:44;99623.03;;;15.28;78.78
73525;BME280;61776;56.194;44.160;2022-07-19T01:15:16;99620.25;;;15.30;78.50
73525;BME280;61776;56.194;44.160;2022-07-19T01:17:42;99611.56;;;15.29;78.54
73525;BME280;61776;56.194;44.160;2022-07-19T01:20:10;99616.28;;;15.34;78.42
73525;BME280;61776;56.194;44.160;2022-07-19T01:22:36;99623.09;;;15.35;78.53
73525;BME280;61776;56.194;44.160;2022-07-19T01:25:02;99628.50;;;15.33;78.45
73525;BME280;61776;56.194;44.160;2022-07-19T01:27:28;99647.09;;;15.39;78.61
73525;BME280;61776;56.194;44.160;2022-07-19T01:29:54;99646.13;;;15.40;78.63
73525;BME280;61776;56.194;44.160;2022-07-19T01:32:20;99649.38;;;15.42;78.71
73525;BME280;61776;56.194;44.160;2022-07-19T01:34:46;99655.69;;;15.47;78.72
73525;BME280;61776;56.194;44.160;2022-07-19T01:37:12;99647.94;;;15.54;78.69
73525;BME280;61776;56.194;44.160;2022-07-19T01:39:37;99653.28;;;15.61;78.68
73525;BME280;61776;56.194;44.160;2022-07-19T01:42:03;99661.03;;;15.69;78.63
73525;BME280;61776;56.194;44.160;2022-07-19T01:44:29;99655.91;;;15.76;78.38
73525;BME280;61776;56.194;44.160;2022-07-19T01:46:55;99655.00;;;15.83;78.17
73525;BME280;61776;56.194;44.160;2022-07-19T01:49:21;99647.16;;;15.83;77.88
73525;BME280;61776;56.194;44.160;2022-07-19T01:51:46;99650.78;;;15.82;78.10
73525;BME280;61776;56.194;44.160;2022-07-19T01:54:12;99648.97;;;15.83;77.97
73525;BME280;61776;56.194;44.160;2022-07-19T01:56:42;99651.88;;;15.88;78.00
73525;BME280;61776;56.194;44.160;2022-07-19T01:59:09;99643.63;;;15.91;78.26
73525;BME280;61776;56.194;44.160;2022-07-19T02:01:35;99633.53;;;15.88;78.02
73525;BME280;61776;56.194;44.160;2022-07-19T02:04:01;99637.13;;;15.87;78.43
73525;BME280;61776;56.194;44.160;2022-07-19T02:06:52;99631.56;;;15.90;78.68
73525;BME280;61776;56.194;44.160;2022-07-19T02:09:17;99629.56;;;15.92;78.53
73525;BME280;61776;56.194;44.160;2022-07-19T02:11:43;99639.91;;;16.00;78.47
73525;BME280;61776;56.194;44.160;2022-07-19T02:14:09;99640.38;;;16.04;78.57
73525;BME280;61776;56.194;44.160;2022-07-19T02:16:36;99638.81;;;16.09;78.36
73525;BME280;61776;56.194;44.160;2022-07-19T02:19:04;99641.19;;;16.04;78.67
73525;BME280;61776;56.194;44.160;2022-07-19T02:21:30;99638.72;;;16.03;78.56
73525;BME280;61776;56.194;44.160;2022-07-19T02:23:56;99642.25;;;16.10;78.51
73525;BME280;61776;56.194;44.160;2022-07-19T02:26:23;99641.44;;;16.09;78.07
73525;BME280;61776;56.194;44.160;2022-07-19T02:28:49;99646.38;;;16.19;77.64
73525;BME280;61776;56.194;44.160;2022-07-19T02:31:16;99645.59;;;16.19;77.09
73525;BME280;61776;56.194;44.160;2022-07-19T02:33:42;99653.78;;;16.16;76.63
73525;BME280;61776;56.194;44.160;2022-07-19T02:36:09;99662.28;;;16.18;76.42
73525;BME280;61776;56.194;44.160;2022-07-19T02:38:35;99657.25;;;16.16;76.65
73525;BME280;61776;56.194;44.160;2022-07-19T02:41:00;99676.03;;;16.20;77.30
73525;BME280;61776;56.194;44.160;2022-07-19T02:43:27;99669.72;;;15.99;77.69
73525;BME280;61776;56.194;44.160;2022-07-19T02:45:53;99664.06;;;15.81;75.75
73525;BME280;61776;56.194;44.160;2022-07-19T02:48:19;99668.16;;;15.60;76.53
73525;BME280;61776;56.194;44.160;2022-07-19T02:50:45;99672.31;;;15.55;76.66
73525;BME280;61776;56.194;44.160;2022-07-19T02:53:11;99684.56;;;15.54;77.15
73525;BME280;61776;56.194;44.160;2022-07-19T02:55:37;99675.38;;;15.58;77.20
73525;BME280;61776;56.194;44.160;2022-07-19T02:58:03;99681.94;;;15.54;76.43
73525;BME280;61776;56.194;44.160;2022-07-19T03:00:30;99672.56;;;15.60;76.03
73525;BME280;61776;56.194;44.160;2022-07-19T03:02:57;99682.59;;;15.56;75.46
73525;BME280;61776;56.194;44.160;2022-07-19T03:05:47;99679.53;;;15.52;75.91
73525;BME280;61776;56.194;44.160;2022-07-19T03:08:14;99682.66;;;15.48;75.68
73525;BME280;61776;56.194;44.160;2022-07-19T03:10:40;99679.25;;;15.62;76.09
73525;BME280;61776;56.194;44.160;2022-07-19T03:13:06;99674.31;;;15.67;75.08
73525;BME280;61776;56.194;44.160;2022-07-19T03:15:32;99666.25;;;15.69;75.69
73525;BME280;61776;56.194;44.160;2022-07-19T03:17:58;99673.25;;;15.77;75.92
73525;BME280;61776;56.194;44.160;2022-07-19T03:20:24;99667.66;;;15.80;75.63
73525;BME280;61776;56.194;44.160;2022-07-19T03:22:49;99671.28;;;15.94;75.69
73525;BME280;61776;56.194;44.160;2022-07-19T03:25:15;99671.63;;;16.05;74.44
73525;BME280;61776;56.194;44.160;2022-07-19T03:27:41;99669.72;;;16.14;74.46
73525;BME280;61776;56.194;44.160;2022-07-19T03:30:07;99667.88;;;16.29;72.90
73525;BME280;61776;56.194;44.160;2022-07-19T03:32:34;99676.63;;;16.37;72.77
73525;BME280;61776;56.194;44.160;2022-07-19T03:34:59;99679.34;;;16.28;72.22
73525;BME280;61776;56.194;44.160;2022-07-19T03:37:25;99680.38;;;15.98;72.71
73525;BME280;61776;56.194;44.160;2022-07-19T03:39:51;99688.47;;;16.03;72.50
73525;BME280;61776;56.194;44.160;2022-07-19T03:42:17;99692.47;;;15.99;72.31
73525;BME280;61776;56.194;44.160;2022-07-19T03:44:42;99697.00;;;15.75;71.55
73525;BME280;61776;56.194;44.160;2022-07-19T03:50:56;99696.38;;;15.50;72.28
73525;BME280;61776;56.194;44.160;2022-07-19T03:53:22;99702.50;;;15.42;73.36
73525;BME280;61776;56.194;44.160;2022-07-19T04:03:07;99712.41;;;15.32;72.00
73525;BME280;61776;56.194;44.160;2022-07-19T04:05:34;99735.88;;;15.40;72.21
73525;BME280;61776;56.194;44.160;2022-07-19T04:08:00;99730.22;;;15.13;72.44
73525;BME280;61776;56.194;44.160;2022-07-19T04:10:25;99730.91;;;15.30;72.79
73525;BME280;61776;56.194;44.160;2022-07-19T04:12:52;99736.75;;;15.32;72.75
73525;BME280;61776;56.194;44.160;2022-07-19T04:15:18;99738.78;;;15.45;73.66
73525;BME280;61776;56.194;44.160;2022-07-19T04:17:45;99731.91;;;15.44;73.85
73525;BME280;61776;56.194;44.160;2022-07-19T04:20:11;99727.94;;;15.48;74.00
73525;BME280;61776;56.194;44.160;2022-07-19T04:22:38;99737.56;;;15.56;75.13
73525;BME280;61776;56.194;44.160;2022-07-19T04:25:04;99727.25;;;15.55;75.31
73525;BME280;61776;56.194;44.160;2022-07-19T04:27:30;99737.94;;;15.68;75.57
73525;BME280;61776;56.194;44.160;2022-07-19T04:29:57;99733.94;;;15.72;76.07
73525;BME280;61776;56.194;44.160;2022-07-19T04:32:23;99736.91;;;15.69;76.66
73525;BME280;61776;56.194;44.160;2022-07-19T04:34:49;99743.16;;;15.68;76.43
73525;BME280;61776;56.194;44.160;2022-07-19T04:37:15;99741.00;;;15.71;76.47
73525;BME280;61776;56.194;44.160;2022-07-19T04:39:42;99740.25;;;15.63;77.04
73525;BME280;61776;56.194;44.160;2022-07-19T04:42:08;99743.94;;;15.53;77.40
73525;BME280;61776;56.194;44.160;2022-07-19T04:44:34;99750.50;;;15.49;77.65
73525;BME280;61776;56.194;44.160;2022-07-19T04:47:00;99750.81;;;15.55;78.20
73525;BME280;61776;56.194;44.160;2022-07-19T04:49:25;99746.19;;;15.57;77.56
73525;BME280;61776;56.194;44.160;2022-07-19T04:51:51;99741.97;;;15.70;77.67
73525;BME280;61776;56.194;44.160;2022-07-19T04:54:17;99740.41;;;15.84;77.18
73525;BME280;61776;56.194;44.160;2022-07-19T04:56:43;99738.78;;;15.98;76.55
73525;BME280;61776;56.194;44.160;2022-07-19T04:59:09;99730.03;;;16.06;76.47
73525;BME280;61776;56.194;44.160;2022-07-19T05:01:35;99726.31;;;16.15;75.94
73525;BME280;61776;56.194;44.160;2022-07-19T05:04:01;99738.97;;;16.26;75.24
73525;BME280;61776;56.194;44.160;2022-07-19T05:06:27;99733.38;;;16.29;75.32
73525;BME280;61776;56.194;44.160;2022-07-19T05:08:53;99739.31;;;16.23;75.12
73525;BME280;61776;56.194;44.160;2022-07-19T05:11:21;99733.56;;;16.28;74.40
73525;BME280;61776;56.194;44.160;2022-07-19T05:13:47;99736.53;;;16.25;74.66
73525;BME280;61776;56.194;44.160;2022-07-19T05:16:13;99739.25;;;16.17;74.75
73525;BME280;61776;56.194;44.160;2022-07-19T05:18:39;99738.50;;;16.23;75.14
73525;BME280;61776;56.194;44.160;2022-07-19T05:21:05;99742.22;;;16.28;74.73
73525;BME280;61776;56.194;44.160;2022-07-19T05:23:31;99747.09;;;16.32;74.55
73525;BME280;61776;56.194;44.160;2022-07-19T05:25:57;99751.78;;;16.06;73.63
73525;BME280;61776;56.194;44.160;2022-07-19T05:28:23;99752.22;;;15.95;74.14
73525;BME280;61776;56.194;44.160;2022-07-19T05:30:49;99746.38;;;16.08;73.42
73525;BME280;61776;56.194;44.160;2022-07-19T05:33:15;99746.53;;;16.06;73.13
73525;BME280;61776;56.194;44.160;2022-07-19T05:35:43;99745.72;;;15.91;74.20
73525;BME280;61776;56.194;44.160;2022-07-19T05:38:09;99745.00;;;15.97;74.36
73525;BME280;61776;56.194;44.160;2022-07-19T05:40:35;99752.97;;;15.89;74.88
73525;BME280;61776;56.194;44.160;2022-07-19T05:43:01;99753.88;;;15.96;74.46
73525;BME280;61776;56.194;44.160;2022-07-19T05:45:27;99756.22;;;16.06;75.07
73525;BME280;61776;56.194;44.160;2022-07-19T05:47:53;99764.34;;;16.11;74.35
73525;BME280;61776;56.194;44.160;2022-07-19T05:50:19;99744.75;;;16.22;73.95
73525;BME280;61776;56.194;44.160;2022-07-19T05:53:09;99753.94;;;16.33;73.01
73525;BME280;61776;56.194;44.160;2022-07-19T05:55:35;99750.84;;;16.59;73.58
73525;BME280;61776;56.194;44.160;2022-07-19T05:58:02;99733.31;;;16.59;70.94
73525;BME280;61776;56.194;44.160;2022-07-19T06:00:28;99750.50;;;16.47;71.93
73525;BME280;61776;56.194;44.160;2022-07-19T06:02:54;99752.63;;;16.73;72.14
73525;BME280;61776;56.194;44.160;2022-07-19T06:05:20;99751.72;;;16.66;71.80
73525;BME280;61776;56.194;44.160;2022-07-19T06:07:46;99746.78;;;16.56;71.33
73525;BME280;61776;56.194;44.160;2022-07-19T06:10:12;99762.34;;;16.43;72.69
73525;BME280;61776;56.194;44.160;2022-07-19T06:12:37;99757.63;;;16.53;72.72
73525;BME280;61776;56.194;44.160;2022-07-19T06:15:04;99767.56;;;16.58;71.93
73525;BME280;61776;56.194;44.160;2022-07-19T06:17:30;99771.16;;;16.86;72.53
73525;BME280;61776;56.194;44.160;2022-07-19T06:19:56;99764.97;;;16.79;70.85
73525;BME280;61776;56.194;44.160;2022-07-19T06:22:21;99768.28;;;16.66;70.22
73525;BME280;61776;56.194;44.160;2022-07-19T06:24:47;99765.59;;;16.81;70.72
73525;BME280;61776;56.194;44.160;2022-07-19T06:27:13;99766.00;;;16.93;70.78
73525;BME280;61776;56.194;44.160;2022-07-19T06:29:39;99775.41;;;16.87;70.55
73525;BME280;61776;56.194;44.160;2022-07-19T06:32:06;99778.22;;;16.86;69.80
73525;BME280;61776;56.194;44.160;2022-07-19T06:34:32;99768.78;;;16.77;70.28
73525;BME280;61776;56.194;44.160;2022-07-19T06:36:57;99777.28;;;16.79;70.64
73525;BME280;61776;56.194;44.160;2022-07-19T06:39:23;99775.94;;;16.83;70.57
73525;BME280;61776;56.194;44.160;2022-07-19T06:41:49;99780.94;;;16.78;70.53
73525;BME280;61776;56.194;44.160;2022-07-19T06:44:17;99795.00;;;16.77;70.92
73525;BME280;61776;56.194;44.160;2022-07-19T06:46:43;99781.94;;;16.62;70.62
73525;BME280;61776;56.194;44.160;2022-07-19T06:49:10;99790.56;;;16.77;69.87
73525;BME280;61776;56.194;44.160;2022-07-19T06:51:35;99797.19;;;16.88;69.81
73525;BME280;61776;56.194;44.160;2022-07-19T06:54:01;99786.91;;;17.08;68.88
73525;BME280;61776;56.194;44.160;2022-07-19T06:56:27;99791.38;;;17.29;68.37
73525;BME280;61776;56.194;44.160;2022-07-19T06:58:53;99779.22;;;17.50;67.65
73525;BME280;61776;56.194;44.160;2022-07-19T07:01:19;99789.06;;;17.91;67.56
73525;BME280;61776;56.194;44.160;2022-07-19T07:03:45;99793.50;;;18.18;65.51
73525;BME280;61776;56.194;44.160;2022-07-19T07:06:11;99800.53;;;18.18;65.50
73525;BME280;61776;56.194;44.160;2022-07-19T07:08:36;99803.09;;;18.04;64.24
73525;BME280;61776;56.194;44.160;2022-07-19T07:11:02;99801.25;;;17.98;65.23
73525;BME280;61776;56.194;44.160;2022-07-19T07:13:28;99811.56;;;18.00;65.14
73525;BME280;61776;56.194;44.160;2022-07-19T07:15:54;99816.72;;;18.15;65.25
73525;BME280;61776;56.194;44.160;2022-07-19T07:18:20;99806.94;;;18.37;63.83
73525;BME280;61776;56.194;44.160;2022-07-19T07:20:46;99823.25;;;18.67;63.32
73525;BME280;61776;56.194;44.160;2022-07-19T07:23:12;99812.63;;;18.82;63.77
73525;BME280;61776;56.194;44.160;2022-07-19T07:25:37;99830.72;;;19.18;63.18
73525;BME280;61776;56.194;44.160;2022-07-19T07:28:03;99818.00;;;19.49;61.18
73525;BME280;61776;56.194;44.160;2022-07-19T07:30:29;99827.38;;;19.71;60.92
73525;BME280;61776;56.194;44.160;2022-07-19T07:32:55;99826.59;;;19.97;60.18
73525;BME280;61776;56.194;44.160;2022-07-19T07:35:21;99828.81;;;19.94;60.24
73525;BME280;61776;56.194;44.160;2022-07-19T07:37:47;99837.50;;;20.14;58.44
73525;BME280;61776;56.194;44.160;2022-07-19T07:40:13;99825.09;;;20.35;61.97
73525;BME280;61776;56.194;44.160;2022-07-19T07:42:39;99829.56;;;20.28;59.53
73525;BME280;61776;56.194;44.160;2022-07-19T07:45:05;99823.28;;;20.22;58.94
73525;BME280;61776;56.194;44.160;2022-07-19T07:47:32;99831.47;;;20.59;59.21
73525;BME280;61776;56.194;44.160;2022-07-19T07:49:58;99833.91;;;21.19;58.46
73525;BME280;61776;56.194;44.160;2022-07-19T07:52:24;99835.16;;;21.10;55.81
73525;BME280;61776;56.194;44.160;2022-07-19T07:54:50;99846.72;;;21.09;55.16
73525;BME280;61776;56.194;44.160;2022-07-19T08:01:26;99847.94;;;20.54;56.10
73525;BME280;61776;56.194;44.160;2022-07-19T08:11:30;99865.47;;;20.02;57.87
73525;BME280;61776;56.194;44.160;2022-07-19T08:14:36;99867.09;;;20.10;56.18
73525;BME280;61776;56.194;44.160;2022-07-19T08:17:43;99864.59;;;20.62;55.88
73525;BME280;61776;56.194;44.160;2022-07-19T08:21:13;99869.94;;;21.45;53.35
73525;BME280;61776;56.194;44.160;2022-07-19T08:24:24;99892.63;;;21.53;51.09
73525;BME280;61776;56.194;44.160;2022-07-19T08:27:54;99888.00;;;21.42;50.07
73525;BME280;61776;56.194;44.160;2022-07-19T08:31:24;99895.34;;;20.88;51.60
73525;BME280;61776;56.194;44.160;2022-07-19T08:34:55;99881.69;;;21.43;51.00
73525;BME280;61776;56.194;44.160;2022-07-19T18:21:51;100131.09;;;14.98;71.31
73525;BME280;61776;56.194;44.160;2022-07-19T18:24:17;100135.84;;;14.94;71.37
73525;BME280;61776;56.194;44.160;2022-07-19T18:26:42;100137.16;;;14.90;71.69
73525;BME280;61776;56.194;44.160;2022-07-19T18:29:10;100142.41;;;14.82;72.08
73525;BME280;61776;56.194;44.160;2022-07-19T18:31:37;100145.63;;;14.75;72.26
73525;BME280;61776;56.194;44.160;2022-07-19T18:34:03;100142.88;;;14.69;72.37
73525;BME280;61776;56.194;44.160;2022-07-19T18:36:30;100142.19;;;14.59;72.76
73525;BME280;61776;56.194;44.160;2022-07-19T18:38:56;100139.22;;;14.53;72.98
73525;BME280;61776;56.194;44.160;2022-07-19T18:41:22;100136.63;;;14.53;72.59
73525;BME280;61776;56.194;44.160;2022-07-19T18:43:48;100146.22;;;14.45;73.28
73525;BME280;61776;56.194;44.160;2022-07-19T18:46:15;100150.59;;;14.36;73.85
73525;BME280;61776;56.194;44.160;2022-07-19T18:48:41;100151.41;;;14.28;74.03
73525;BME280;61776;56.194;44.160;2022-07-19T18:51:08;100141.44;;;14.24;73.86
73525;BME280;61776;56.194;44.160;2022-07-19T18:53:39;100143.56;;;14.28;73.88
73525;BME280;61776;56.194;44.160;2022-07-19T18:56:06;100146.19;;;14.28;73.87
73525;BME280;61776;56.194;44.160;2022-07-19T18:58:33;100144.06;;;14.32;73.85
73525;BME280;61776;56.194;44.160;2022-07-19T19:01:02;100141.31;;;14.33;73.60
73525;BME280;61776;56.194;44.160;2022-07-19T19:03:30;100142.13;;;14.34;73.39
73525;BME280;61776;56.194;44.160;2022-07-19T19:05:56;100140.16;;;14.28;73.39
73525;BME280;61776;56.194;44.160;2022-07-19T19:08:22;100141.13;;;14.27;73.32
73525;BME280;61776;56.194;44.160;2022-07-19T19:10:48;100140.16;;;14.28;73.40
73525;BME280;61776;56.194;44.160;2022-07-19T19:13:14;100129.84;;;14.18;73.86
73525;BME280;61776;56.194;44.160;2022-07-19T19:15:40;100131.97;;;14.23;73.79
73525;BME280;61776;56.194;44.160;2022-07-19T19:18:06;100136.16;;;14.07;74.13
73525;BME280;61776;56.194;44.160;2022-07-19T19:20:32;100135.00;;;14.02;74.57
73525;BME280;61776;56.194;44.160;2022-07-19T19:22:58;100133.53;;;13.99;74.49
73525;BME280;61776;56.194;44.160;2022-07-19T19:25:24;100127.81;;;13.95;74.45
73525;BME280;61776;56.194;44.160;2022-07-19T19:27:50;100130.56;;;13.94;74.48
73525;BME280;61776;56.194;44.160;2022-07-19T19:30:17;100130.06;;;13.90;74.66
73525;BME280;61776;56.194;44.160;2022-07-19T19:32:48;100137.41;;;13.95;74.25
73525;BME280;61776;56.194;44.160;2022-07-19T19:35:15;100126.66;;;13.90;74.30
73525;BME280;61776;56.194;44.160;2022-07-19T19:37:41;100129.41;;;13.88;74.36
73525;BME280;61776;56.194;44.160;2022-07-19T19:40:09;100127.09;;;13.77;74.67
73525;BME280;61776;56.194;44.160;2022-07-19T19:42:36;100126.88;;;13.70;74.84
73525;BME280;61776;56.194;44.160;2022-07-19T19:45:04;100125.13;;;13.79;74.54
73525;BME280;61776;56.194;44.160;2022-07-19T19:47:30;100123.03;;;13.83;74.12
73525;BME280;61776;56.194;44.160;2022-07-19T19:49:56;100123.97;;;13.73;74.45
73525;BME280;61776;56.194;44.160;2022-07-19T19:52:23;100116.00;;;13.75;74.16
73525;BME280;61776;56.194;44.160;2022-07-19T19:54:49;100124.13;;;13.72;74.00
73525;BME280;61776;56.194;44.160;2022-07-19T19:57:15;100124.41;;;13.69;74.15
73525;BME280;61776;56.194;44.160;2022-07-19T19:59:41;100120.34;;;13.66;74.19
73525;BME280;61776;56.194;44.160;2022-07-19T20:02:07;100123.59;;;13.68;73.71
73525;BME280;61776;56.194;44.160;2022-07-19T20:04:33;100120.50;;;13.65;73.96
73525;BME280;61776;56.194;44.160;2022-07-19T20:07:00;100126.84;;;13.62;74.02
73525;BME280;61776;56.194;44.160;2022-07-19T20:09:27;100130.41;;;13.61;73.85
73525;BME280;61776;56.194;44.160;2022-07-19T20:11:54;100124.38;;;13.61;74.01
73525;BME280;61776;56.194;44.160;2022-07-19T20:14:20;100132.06;;;13.62;73.69
73525;BME280;61776;56.194;44.160;2022-07-19T20:16:47;100123.25;;;13.63;73.64
73525;BME280;61776;56.194;44.160;2022-07-19T20:19:15;100119.19;;;13.69;73.34
73525;BME280;61776;56.194;44.160;2022-07-19T20:21:42;100123.09;;;13.65;73.38
73525;BME280;61776;56.194;44.160;2022-07-19T20:24:08;100122.44;;;13.63;73.13
73525;BME280;61776;56.194;44.160;2022-07-19T20:26:35;100112.81;;;13.63;73.11
73525;BME280;61776;56.194;44.160;2022-07-19T20:29:01;100125.19;;;13.61;73.20
73525;BME280;61776;56.194;44.160;2022-07-19T20:31:28;100112.81;;;13.63;72.98
73525;BME280;61776;56.194;44.160;2022-07-19T20:33:54;100112.63;;;13.56;73.34
73525;BME280;61776;56.194;44.160;2022-07-19T20:36:20;100115.19;;;13.48;73.54
73525;BME280;61776;56.194;44.160;2022-07-19T20:38:46;100104.94;;;13.47;73.57
73525;BME280;61776;56.194;44.160;2022-07-19T20:41:12;100105.06;;;13.45;73.42
73525;BME280;61776;56.194;44.160;2022-07-19T20:43:38;100098.28;;;13.52;73.12
73525;BME280;61776;56.194;44.160;2022-07-19T20:46:05;100105.59;;;13.49;73.43
73525;BME280;61776;56.194;44.160;2022-07-19T20:48:31;100098.06;;;13.46;73.16
73525;BME280;61776;56.194;44.160;2022-07-19T20:50:57;100094.66;;;13.45;73.29
73525;BME280;61776;56.194;44.160;2022-07-19T20:53:23;100097.41;;;13.44;73.03
73525;BME280;61776;56.194;44.160;2022-07-19T20:55:49;100094.13;;;13.42;73.17
73525;BME280;61776;56.194;44.160;2022-07-19T20:58:15;100100.13;;;13.34;73.58
73525;BME280;61776;56.194;44.160;2022-07-19T21:00:42;100093.91;;;13.35;73.74
73525;BME280;61776;56.194;44.160;2022-07-19T21:03:08;100099.47;;;13.32;73.52
73525;BME280;61776;56.194;44.160;2022-07-19T21:05:35;100094.56;;;13.37;73.28
73525;BME280;61776;56.194;44.160;2022-07-19T21:08:02;100094.28;;;13.40;73.18
73525;BME280;61776;56.194;44.160;2022-07-19T21:10:28;100095.75;;;13.43;72.94
73525;BME280;61776;56.194;44.160;2022-07-19T21:12:55;100089.44;;;13.45;73.15
73525;BME280;61776;56.194;44.160;2022-07-19T21:15:22;100090.72;;;13.41;73.04
73525;BME280;61776;56.194;44.160;2022-07-19T21:17:48;100094.28;;;13.40;73.00
73525;BME280;61776;56.194;44.160;2022-07-19T21:20:16;100095.94;;;13.41;73.07
73525;BME280;61776;56.194;44.160;2022-07-19T21:22:42;100086.09;;;13.35;73.06
73525;BME280;61776;56.194;44.160;2022-07-19T21:25:09;100087.09;;;13.34;73.14
73525;BME280;61776;56.194;44.160;2022-07-19T21:27:35;100088.34;;;13.30;73.50
73525;BME280;61776;56.194;44.160;2022-07-19T21:30:02;100092.72;;;13.29;73.47
73525;BME280;61776;56.194;44.160;2022-07-19T21:32:28;100077.41;;;13.26;73.67
73525;BME280;61776;56.194;44.160;2022-07-19T21:34:54;100085.72;;;13.30;73.69
73525;BME280;61776;56.194;44.160;2022-07-19T21:37:19;100074.09;;;13.24;74.43
73525;BME280;61776;56.194;44.160;2022-07-19T21:39:46;100070.78;;;13.32;74.13
73525;BME280;61776;56.194;44.160;2022-07-19T21:42:13;100072.53;;;13.31;74.42
73525;BME280;61776;56.194;44.160;2022-07-19T21:44:39;100066.22;;;13.34;74.42
73525;BME280;61776;56.194;44.160;2022-07-19T21:47:05;100072.53;;;13.31;74.97
73525;BME280;61776;56.194;44.160;2022-07-19T21:49:31;100076.69;;;13.24;75.64
73525;BME280;61776;56.194;44.160;2022-07-19T21:51:57;100067.41;;;13.21;75.60
73525;BME280;61776;56.194;44.160;2022-07-19T21:54:23;100076.53;;;13.17;75.74
73525;BME280;61776;56.194;44.160;2022-07-19T21:56:49;100073.25;;;13.15;75.93
73525;BME280;61776;56.194;44.160;2022-07-19T21:59:14;100076.00;;;13.14;75.87
73525;BME280;61776;56.194;44.160;2022-07-19T22:01:40;100067.72;;;13.18;75.56
73525;BME280;61776;56.194;44.160;2022-07-19T22:04:06;100062.81;;;13.15;75.68
73525;BME280;61776;56.194;44.160;2022-07-19T22:06:32;100061.66;;;13.10;75.76
73525;BME280;61776;56.194;44.160;2022-07-19T22:08:58;100065.56;;;13.14;75.56
73525;BME280;61776;56.194;44.160;2022-07-19T22:11:25;100059.06;;;13.18;75.26
73525;BME280;61776;56.194;44.160;2022-07-19T22:13:51;100066.91;;;13.18;75.06
73525;BME280;61776;56.194;44.160;2022-07-19T22:16:17;100059.75;;;13.20;74.82
73525;BME280;61776;56.194;44.160;2022-07-19T22:18:43;100062.97;;;13.14;75.21
73525;BME280;61776;56.194;44.160;2022-07-19T22:21:09;100059.84;;;13.10;75.22
73525;BME280;61776;56.194;44.160;2022-07-19T22:23:35;100052.69;;;13.12;75.26
73525;BME280;61776;56.194;44.160;2022-07-19T22:26:01;100050.22;;;13.11;75.31
73525;BME280;61776;56.194;44.160;2022-07-19T22:28:27;100049.78;;;13.15;74.87
73525;BME280;61776;56.194;44.160;2022-07-19T22:30:53;100055.38;;;13.20;74.60
73525;BME280;61776;56.194;44.160;2022-07-19T22:33:19;100050.97;;;13.21;74.49
73525;BME280;61776;56.194;44.160;2022-07-19T22:35:45;100050.22;;;13.11;74.93
73525;BME280;61776;56.194;44.160;2022-07-19T22:38:11;100042.94;;;13.14;74.76
73525;BME280;61776;56.194;44.160;2022-07-19T22:40:37;100047.84;;;13.17;74.42
73525;BME280;61776;56.194;44.160;2022-07-19T22:43:03;100039.88;;;13.19;74.34
73525;BME280;61776;56.194;44.160;2022-07-19T22:45:29;100045.09;;;13.19;74.26
73525;BME280;61776;56.194;44.160;2022-07-19T22:47:55;100043.56;;;13.08;74.64
73525;BME280;61776;56.194;44.160;2022-07-19T22:50:21;100036.25;;;13.12;74.40
73525;BME280;61776;56.194;44.160;2022-07-19T22:52:48;100037.69;;;13.06;74.55
73525;BME280;61776;56.194;44.160;2022-07-19T22:55:14;100041.56;;;13.02;75.00